createdAt,value
2022-09-18T00:01:18.455Z,10.67
2022-09-18T00:03:46.432Z,10.67
2022-09-18T00:06:27.075Z,10.66
2022-09-18T00:08:57.138Z,10.66
2022-09-18T00:11:25.798Z,10.66
2022-09-18T00:13:52.924Z,10.66
2022-09-18T00:16:31.422Z,10.67
2022-09-18T00:18:58.591Z,10.67
2022-09-18T00:21:26.121Z,10.65
2022-09-18T00:23:55.877Z,10.67
2022-09-18T00:26:25.463Z,10.67
2022-09-18T00:28:54.164Z,10.68
2022-09-18T00:31:30.961Z,10.68
2022-09-18T00:34:00.684Z,10.69
2022-09-18T00:36:29.330Z,10.70
2022-09-18T00:38:58.816Z,10.71
2022-09-18T00:41:29.970Z,10.72
2022-09-18T00:44:30.938Z,10.75
2022-09-18T00:47:10.570Z,10.77
2022-09-18T00:49:40.412Z,10.78
2022-09-18T00:52:08.366Z,10.78
2022-09-18T00:54:42.358Z,10.80
2022-09-18T00:57:13.832Z,10.80
2022-09-18T00:59:43.253Z,10.80
2022-09-18T01:02:10.468Z,10.82
2022-09-18T01:04:38.458Z,10.84
2022-09-18T01:07:09.504Z,10.84
2022-09-18T01:09:49.145Z,10.83
2022-09-18T01:12:51.208Z,10.83
2022-09-18T01:15:41.120Z,10.84
2022-09-18T01:18:46.438Z,10.84
2022-09-18T01:21:15.850Z,10.86
2022-09-18T01:24:16.288Z,10.86
2022-09-18T01:27:07.569Z,10.86
2022-09-18T01:29:34.219Z,10.86
2022-09-18T01:32:09.263Z,10.87
2022-09-18T01:35:09.865Z,10.87
2022-09-18T01:38:03.653Z,10.87
2022-09-18T01:40:40.193Z,10.88
2022-09-18T01:43:16.778Z,10.89
2022-09-18T01:45:47.197Z,10.91
2022-09-18T01:48:26.213Z,10.94
2022-09-18T01:50:59.080Z,10.95
2022-09-18T01:53:41.468Z,10.98
2022-09-18T01:56:17.724Z,10.98
2022-09-18T01:58:45.728Z,10.96
2022-09-18T02:01:16.235Z,10.92
2022-09-18T02:03:49.443Z,10.92
2022-09-18T02:06:21.789Z,10.91
2022-09-18T02:08:55.097Z,10.91
2022-09-18T02:11:23.309Z,10.91
2022-09-18T02:14:11.737Z,10.88
2022-09-18T02:16:45.394Z,10.88
2022-09-18T02:19:21.034Z,10.87
2022-09-18T02:21:50.170Z,10.83
2022-09-18T02:24:22.956Z,10.81
2022-09-18T02:26:52.853Z,10.80
2022-09-18T02:29:22.569Z,10.81
2022-09-18T02:31:50.798Z,10.81
2022-09-18T02:34:20.704Z,10.80
2022-09-18T02:37:11.888Z,10.80
2022-09-18T02:39:44.269Z,10.80
2022-09-18T02:42:13.761Z,10.79
2022-09-18T02:44:52.630Z,10.80
2022-09-18T02:47:34.789Z,10.79
2022-09-18T02:50:23.400Z,10.81
2022-09-18T02:52:57.597Z,10.80
2022-09-18T02:55:33.394Z,10.80
2022-09-18T02:58:05.118Z,10.82
2022-09-18T03:00:33.345Z,10.83
2022-09-18T03:03:00.708Z,10.85
2022-09-18T03:05:27.429Z,10.85
2022-09-18T03:07:54.119Z,10.84
2022-09-18T03:10:20.697Z,10.88
2022-09-18T03:12:47.184Z,10.89
2022-09-18T03:15:13.748Z,10.88
2022-09-18T03:17:40.438Z,10.88
2022-09-18T03:20:07.729Z,10.91
2022-09-18T03:22:34.765Z,10.95
2022-09-18T03:25:01.453Z,10.94
2022-09-18T03:27:28.077Z,10.97
2022-09-18T03:29:54.704Z,10.99
2022-09-18T03:32:21.276Z,10.99
2022-09-18T03:34:48.214Z,11.00
2022-09-18T03:37:14.820Z,11.00
2022-09-18T03:39:41.483Z,11.00
2022-09-18T03:42:08.194Z,11.00
2022-09-18T03:44:34.817Z,11.03
2022-09-18T03:47:01.937Z,11.06
2022-09-18T03:49:28.524Z,11.03
2022-09-18T03:51:55.153Z,11.03
2022-09-18T03:54:21.652Z,11.04
2022-09-18T03:56:48.651Z,11.05
2022-09-18T03:59:15.235Z,11.05
2022-09-18T04:01:42.049Z,11.06
2022-09-18T04:04:08.789Z,11.05
2022-09-18T04:06:35.501Z,11.04
2022-09-18T04:09:02.225Z,11.06
2022-09-18T04:11:28.926Z,11.05
2022-09-18T04:13:55.600Z,11.07
2022-09-18T04:16:22.276Z,11.07
2022-09-18T04:18:48.886Z,11.07
2022-09-18T04:21:15.597Z,11.09
2022-09-18T04:23:42.256Z,11.09
2022-09-18T04:26:09.843Z,11.08
2022-09-18T04:28:37.422Z,11.04
2022-09-18T04:31:04.232Z,11.04
2022-09-18T04:33:30.870Z,11.07
2022-09-18T04:35:57.607Z,11.07
2022-09-18T04:38:27.355Z,11.07
2022-09-18T04:40:58.495Z,11.06
2022-09-18T04:43:26.779Z,11.07
2022-09-18T04:45:55.044Z,11.06
2022-09-18T04:48:22.397Z,11.08
2022-09-18T04:50:49.359Z,11.10
2022-09-18T04:53:16.233Z,11.13
2022-09-18T04:55:44.578Z,11.18
2022-09-18T04:58:14.069Z,11.22
2022-09-18T05:00:41.389Z,11.23
2022-09-18T05:03:08.772Z,11.21
2022-09-18T05:05:35.695Z,11.21
2022-09-18T05:08:05.177Z,11.20
2022-09-18T05:10:32.189Z,11.18
2022-09-18T05:12:58.780Z,11.18
2022-09-18T05:15:25.398Z,11.20
2022-09-18T05:18:00.494Z,11.19
2022-09-18T05:20:28.224Z,11.20
2022-09-18T05:22:55.230Z,11.20
2022-09-18T05:25:26.864Z,11.21
2022-09-18T05:27:55.271Z,11.20
2022-09-18T05:30:23.224Z,11.20
2022-09-18T05:33:01.626Z,11.17
2022-09-18T05:35:31.783Z,11.15
2022-09-18T05:37:58.920Z,11.15
2022-09-18T05:40:30.544Z,11.16
2022-09-18T05:42:57.572Z,11.15
2022-09-18T05:45:31.951Z,11.14
2022-09-18T05:48:02.387Z,11.13
2022-09-18T05:50:30.759Z,11.10
2022-09-18T05:53:06.601Z,11.08
2022-09-18T05:55:34.264Z,11.07
2022-09-18T05:58:02.585Z,11.08
2022-09-18T06:00:31.946Z,11.08
2022-09-18T06:03:24.669Z,11.08
2022-09-18T06:05:52.994Z,11.09
2022-09-18T06:08:20.550Z,11.09
2022-09-18T06:10:47.205Z,11.10
2022-09-18T06:13:16.284Z,11.06
2022-09-18T06:15:47.849Z,11.03
2022-09-18T06:18:15.346Z,11.03
2022-09-18T06:20:43.623Z,11.02
2022-09-18T06:23:10.856Z,11.03
2022-09-18T06:25:37.557Z,11.05
2022-09-18T06:28:06.027Z,11.07
2022-09-18T06:30:34.924Z,11.10
2022-09-18T06:33:06.033Z,11.12
2022-09-18T06:35:34.047Z,11.15
2022-09-18T06:38:02.774Z,11.14
2022-09-18T06:40:33.427Z,11.12
2022-09-18T06:43:02.257Z,11.11
2022-09-18T06:45:30.650Z,11.10
2022-09-18T06:48:02.079Z,11.13
2022-09-18T06:50:29.335Z,11.12
2022-09-18T06:53:07.747Z,11.14
2022-09-18T06:55:38.716Z,11.18
2022-09-18T06:58:05.647Z,11.18
2022-09-18T07:00:32.578Z,11.16
2022-09-18T07:03:19.129Z,11.15
2022-09-18T07:05:45.843Z,11.14
2022-09-18T07:08:13.514Z,11.13
2022-09-18T07:10:40.562Z,11.14
2022-09-18T07:13:08.099Z,11.13
2022-09-18T07:15:35.016Z,11.12
2022-09-18T07:18:03.729Z,11.10
2022-09-18T07:20:30.799Z,11.07
2022-09-18T07:23:01.464Z,11.04
2022-09-18T07:25:38.124Z,11.03
2022-09-18T07:28:09.211Z,11.07
2022-09-18T07:30:37.365Z,11.08
2022-09-18T07:33:06.331Z,11.06
2022-09-18T07:35:33.415Z,11.05
2022-09-18T07:38:01.614Z,11.12
2022-09-18T07:40:29.085Z,11.11
2022-09-18T07:43:05.083Z,11.11
2022-09-18T07:45:32.287Z,11.10
2022-09-18T07:48:05.928Z,11.11
2022-09-18T07:50:33.360Z,11.07
2022-09-18T07:53:02.977Z,11.04
2022-09-18T07:55:29.829Z,10.96
2022-09-18T07:57:58.635Z,10.86
2022-09-18T08:00:27.341Z,10.78
2022-09-18T08:03:14.848Z,10.68
2022-09-18T08:05:41.851Z,10.63
2022-09-18T08:08:12.734Z,10.56
2022-09-18T08:10:41.276Z,10.52
2022-09-18T08:13:07.954Z,10.52
2022-09-18T08:15:37.284Z,10.55
2022-09-18T08:18:07.521Z,10.62
2022-09-18T08:20:34.678Z,10.63
2022-09-18T08:23:04.244Z,10.59
2022-09-18T08:25:31.628Z,10.65
2022-09-18T08:28:03.106Z,10.68
2022-09-18T08:30:30.549Z,10.61
2022-09-18T08:33:09.500Z,10.56
2022-09-18T08:35:36.834Z,10.54
2022-09-18T08:38:03.807Z,10.49
2022-09-18T08:41:23.190Z,10.47
2022-09-18T08:44:06.503Z,10.46
2022-09-18T08:47:01.592Z,10.50
2022-09-18T08:49:46.889Z,10.49
2022-09-18T08:52:22.997Z,10.48
2022-09-18T08:54:58.617Z,10.45
2022-09-18T08:57:32.600Z,10.40
2022-09-18T09:00:31.730Z,10.39
2022-09-18T09:03:14.641Z,10.46
2022-09-18T09:06:03.491Z,10.51
2022-09-18T09:08:35.814Z,10.46
2022-09-18T09:11:20.640Z,10.47
2022-09-18T09:14:15.370Z,10.54
2022-09-18T09:16:44.234Z,10.76
2022-09-18T09:19:49.012Z,11.04
2022-09-18T09:22:40.965Z,11.48
2022-09-18T09:25:20.809Z,12.03
2022-09-18T09:28:16.329Z,12.39
2022-09-18T09:31:06.591Z,12.66
2022-09-18T09:34:13.590Z,12.78
2022-09-18T09:36:43.323Z,12.79
2022-09-18T09:39:26.964Z,12.80
2022-09-18T09:42:07.208Z,12.86
2022-09-18T09:44:55.695Z,12.93
2022-09-18T09:47:31.728Z,13.25
2022-09-18T09:50:04.604Z,13.44
2022-09-18T09:52:31.936Z,13.61
2022-09-18T09:55:09.938Z,13.64
2022-09-18T09:57:39.195Z,13.89
2022-09-18T10:00:14.500Z,14.06
2022-09-18T10:03:23.595Z,14.18
2022-09-18T10:06:09.158Z,14.30
2022-09-18T10:08:47.521Z,14.32
2022-09-18T10:11:22.624Z,14.22
2022-09-18T10:14:00.484Z,14.06
2022-09-18T10:16:38.566Z,14.04
2022-09-18T10:19:05.619Z,13.84
2022-09-18T10:21:35.703Z,13.75
2022-09-18T10:24:31.661Z,13.73
2022-09-18T10:27:15.558Z,13.93
2022-09-18T10:29:42.539Z,14.20
2022-09-18T10:32:13.664Z,14.39
2022-09-18T10:34:45.524Z,14.67
2022-09-18T10:37:16.774Z,14.91
2022-09-18T10:39:52.780Z,15.03
2022-09-18T10:42:22.830Z,14.99
2022-09-18T10:45:01.611Z,15.16
2022-09-18T10:47:32.579Z,15.30
2022-09-18T10:50:17.035Z,15.23
2022-09-18T10:52:53.688Z,15.43
2022-09-18T10:55:27.852Z,15.60
2022-09-18T10:57:54.374Z,15.29
2022-09-18T11:00:21.233Z,15.02
2022-09-18T11:02:58.021Z,15.09
2022-09-18T11:05:30.656Z,15.20
2022-09-18T11:08:00.929Z,15.21
2022-09-18T11:10:32.633Z,15.31
2022-09-18T11:13:02.319Z,15.45
2022-09-18T11:15:32.048Z,15.54
2022-09-18T11:18:04.906Z,15.73
2022-09-18T11:20:41.385Z,15.74
2022-09-18T11:23:34.204Z,15.95
2022-09-18T11:26:36.815Z,15.74
2022-09-18T11:29:27.174Z,15.64
2022-09-18T11:32:19.751Z,15.93
2022-09-18T11:34:50.737Z,16.24
2022-09-18T11:37:35.704Z,16.13
2022-09-18T11:40:15.230Z,15.86
2022-09-18T11:42:47.760Z,15.77
2022-09-18T11:45:26.338Z,15.55
2022-09-18T11:48:05.509Z,15.70
2022-09-18T11:50:55.742Z,15.88
2022-09-18T11:53:44.049Z,16.04
2022-09-18T11:56:18.600Z,15.85
2022-09-18T11:58:53.555Z,15.75
2022-09-18T12:01:26.880Z,16.06
2022-09-18T12:04:18.440Z,16.52
2022-09-18T12:07:10.935Z,16.64
2022-09-18T12:10:00.679Z,17.05
2022-09-18T12:12:36.539Z,17.59
2022-09-18T12:15:15.192Z,17.93
2022-09-18T12:18:03.844Z,17.84
2022-09-18T12:20:43.132Z,17.89
2022-09-18T12:23:16.668Z,17.76
2022-09-18T12:25:47.677Z,17.58
2022-09-18T12:28:32.951Z,17.39
2022-09-18T12:31:21.872Z,17.10
2022-09-18T12:34:22.693Z,16.64
2022-09-18T12:37:18.178Z,16.37
2022-09-18T12:40:01.184Z,16.17
2022-09-18T12:43:05.611Z,15.94
2022-09-18T12:45:38.821Z,15.87
2022-09-18T12:48:28.120Z,15.86
2022-09-18T12:51:11.742Z,16.01
2022-09-18T12:53:56.734Z,15.81
2022-09-18T12:56:29.838Z,15.85
2022-09-18T12:59:05.502Z,15.83
2022-09-18T13:01:44.766Z,15.95
2022-09-18T13:04:38.101Z,15.83
2022-09-18T13:07:13.302Z,15.68
2022-09-18T13:09:43.073Z,15.50
2022-09-18T13:12:17.870Z,15.22
2022-09-18T13:14:49.934Z,15.16
2022-09-18T13:17:41.517Z,15.11
2022-09-18T13:20:24.348Z,15.09
2022-09-18T13:23:11.713Z,15.11
2022-09-18T13:25:40.565Z,15.08
2022-09-18T13:28:13.738Z,15.09
2022-09-18T13:30:41.066Z,14.96
2022-09-18T13:33:26.249Z,14.76
2022-09-18T13:35:56.283Z,14.54
2022-09-18T13:38:28.675Z,14.40
2022-09-18T13:41:03.173Z,14.16
2022-09-18T13:43:32.645Z,14.10
2022-09-18T13:46:06.028Z,14.12
2022-09-18T13:48:39.660Z,14.12
2022-09-18T13:51:31.808Z,14.21
2022-09-18T13:54:10.598Z,14.22
2022-09-18T13:57:14.238Z,14.21
2022-09-18T14:00:05.353Z,14.30
2022-09-18T14:02:38.172Z,14.56
2022-09-18T14:05:34.104Z,14.80
2022-09-18T14:08:32.814Z,15.11
2022-09-18T14:11:24.614Z,15.48
2022-09-18T14:13:57.198Z,15.99
2022-09-18T14:16:45.570Z,16.20
2022-09-18T14:19:33.079Z,15.95
2022-09-18T14:22:00.961Z,15.86
2022-09-18T14:24:39.853Z,15.78
2022-09-18T14:27:49.519Z,15.27
2022-09-18T14:30:17.799Z,14.61
2022-09-18T14:33:24.315Z,14.38
2022-09-18T14:36:04.054Z,14.11
2022-09-18T14:38:56.829Z,13.84
2022-09-18T14:41:31.560Z,13.73
2022-09-18T14:44:01.269Z,13.63
2022-09-18T14:46:28.554Z,13.48
2022-09-18T14:48:55.606Z,13.48
2022-09-18T14:51:28.308Z,13.42
2022-09-18T14:53:57.758Z,13.40
2022-09-18T14:56:33.979Z,13.31
2022-09-18T14:59:07.918Z,13.31
2022-09-18T15:01:36.943Z,13.32
2022-09-18T15:04:06.095Z,13.25
2022-09-18T15:06:49.418Z,13.20
2022-09-18T15:09:24.090Z,13.15
2022-09-18T15:12:06.482Z,13.09
2022-09-18T15:14:42.806Z,13.02
2022-09-18T15:17:20.728Z,12.97
2022-09-18T15:19:58.554Z,12.96
2022-09-18T15:22:27.282Z,12.94
2022-09-18T15:24:54.767Z,12.97
2022-09-18T15:27:22.970Z,13.01
2022-09-18T15:30:01.940Z,13.02
2022-09-18T15:32:38.305Z,12.96
2022-09-18T15:35:08.330Z,12.89
2022-09-18T15:37:37.886Z,12.82
2022-09-18T15:40:09.109Z,12.83
2022-09-18T15:42:41.589Z,12.82
2022-09-18T15:45:18.087Z,12.79
2022-09-18T15:47:45.894Z,12.79
2022-09-18T15:50:12.536Z,12.78
2022-09-18T15:52:48.583Z,12.85
2022-09-18T15:55:23.245Z,12.95
2022-09-18T15:57:53.734Z,12.98
2022-09-18T16:00:24.159Z,12.90
2022-09-18T16:02:59.971Z,12.88
2022-09-18T16:05:31.192Z,12.85
2022-09-18T16:08:01.373Z,12.84
2022-09-18T16:10:33.983Z,12.84
2022-09-18T16:13:20.561Z,12.88
2022-09-18T16:16:07.295Z,12.91
2022-09-18T16:18:48.044Z,12.90
2022-09-18T16:21:22.790Z,12.80
2022-09-18T16:24:02.558Z,12.74
2022-09-18T16:26:33.312Z,12.72
2022-09-18T16:29:05.927Z,12.68
2022-09-18T16:31:37.067Z,12.63
2022-09-18T16:34:25.584Z,12.58
2022-09-18T16:36:55.210Z,12.58
2022-09-18T16:39:24.902Z,12.60
2022-09-18T16:41:52.305Z,12.58
2022-09-18T16:44:19.139Z,12.55
2022-09-18T16:46:59.731Z,12.55
2022-09-18T16:49:33.486Z,12.55
2022-09-18T16:52:00.192Z,12.56
2022-09-18T16:54:27.022Z,12.59
2022-09-18T16:57:02.444Z,12.59
2022-09-18T16:59:31.683Z,12.60
2022-09-18T17:02:04.274Z,12.64
2022-09-18T17:04:33.587Z,12.66
2022-09-18T17:07:00.915Z,12.67
2022-09-18T17:09:27.958Z,12.67
2022-09-18T17:11:55.132Z,12.67
2022-09-18T17:14:24.095Z,12.65
2022-09-18T17:16:51.082Z,12.66
2022-09-18T17:19:18.483Z,12.68
2022-09-18T17:21:45.272Z,12.69
2022-09-18T17:24:12.492Z,12.71
2022-09-18T17:26:41.262Z,12.70
2022-09-18T17:29:11.741Z,12.70
2022-09-18T17:31:38.680Z,12.73
2022-09-18T17:34:05.559Z,12.75
2022-09-18T17:36:36.710Z,12.76
2022-09-18T17:39:04.333Z,12.79
2022-09-18T17:41:31.824Z,12.81
2022-09-18T17:43:58.971Z,12.78
2022-09-18T17:46:26.597Z,12.77
2022-09-18T17:48:58.188Z,12.74
2022-09-18T17:51:28.741Z,12.72
2022-09-18T17:53:59.041Z,12.74
2022-09-18T17:56:32.132Z,12.75
2022-09-18T17:59:05.218Z,12.75
2022-09-18T18:01:37.015Z,12.74
2022-09-18T18:04:04.833Z,12.77
2022-09-18T18:06:32.069Z,12.74
2022-09-18T18:08:58.797Z,12.74
2022-09-18T18:11:25.759Z,12.76
2022-09-18T18:13:54.170Z,12.74
2022-09-18T18:16:30.102Z,12.70
2022-09-18T18:19:00.842Z,12.69
2022-09-18T18:21:28.440Z,12.64
2022-09-18T18:23:57.122Z,12.63
2022-09-18T18:26:25.587Z,12.63
2022-09-18T18:28:52.309Z,12.59
2022-09-18T18:31:19.068Z,12.49
2022-09-18T18:33:45.933Z,12.39
2022-09-18T18:36:16.384Z,12.34
2022-09-18T18:38:45.082Z,12.27
2022-09-18T18:41:13.764Z,12.15
2022-09-18T18:43:41.526Z,12.08
2022-09-18T18:46:12.232Z,12.00
2022-09-18T18:48:43.639Z,11.97
2022-09-18T18:51:15.828Z,11.92
2022-09-18T18:53:43.383Z,11.84
2022-09-18T18:56:13.836Z,11.77
2022-09-18T18:58:42.270Z,11.70
2022-09-18T19:01:14.891Z,11.63
2022-09-18T19:03:48.559Z,11.54
2022-09-18T19:06:15.304Z,11.51
2022-09-18T19:08:46.424Z,11.51
2022-09-18T19:11:15.090Z,11.52
2022-09-18T19:13:45.209Z,11.51
2022-09-18T19:16:12.608Z,11.49
2022-09-18T19:18:40.623Z,11.48
2022-09-18T19:21:07.864Z,11.47
2022-09-18T19:23:35.181Z,11.45
2022-09-18T19:26:02.328Z,11.46
2022-09-18T19:28:30.883Z,11.48
2022-09-18T19:31:03.670Z,11.47
2022-09-18T19:33:32.733Z,11.48
2022-09-18T19:36:05.318Z,11.48
2022-09-18T19:38:32.968Z,11.47
2022-09-18T19:41:01.788Z,11.50
2022-09-18T19:43:33.505Z,11.51
2022-09-18T19:46:01.223Z,11.52
2022-09-18T19:48:28.351Z,11.49
2022-09-18T19:50:55.350Z,11.49
2022-09-18T19:53:22.344Z,11.44
2022-09-18T19:55:49.273Z,11.41
2022-09-18T19:58:17.211Z,11.40
2022-09-18T20:00:45.260Z,11.37
2022-09-18T20:03:12.238Z,11.31
2022-09-18T20:05:40.493Z,11.26
2022-09-18T20:08:08.318Z,11.18
2022-09-18T20:10:37.429Z,11.11
2022-09-18T20:13:05.012Z,11.04
2022-09-18T20:15:31.955Z,10.97
2022-09-18T20:17:59.169Z,10.90
2022-09-18T20:20:25.952Z,10.85
2022-09-18T20:22:54.799Z,10.80
2022-09-18T20:25:22.304Z,10.72
2022-09-18T20:27:49.026Z,10.68
2022-09-18T20:30:17.590Z,10.68
2022-09-18T20:32:44.353Z,10.67
2022-09-18T20:35:10.952Z,10.67
2022-09-18T20:37:37.769Z,10.64
2022-09-18T20:40:06.603Z,10.61
2022-09-18T20:42:34.033Z,10.59
2022-09-18T20:45:01.855Z,10.59
2022-09-18T20:47:34.472Z,10.58
2022-09-18T20:50:07.460Z,10.57
2022-09-18T20:52:42.460Z,10.53
2022-09-18T20:55:12.715Z,10.52
2022-09-18T20:57:45.808Z,10.49
2022-09-18T21:00:17.506Z,10.50
2022-09-18T21:02:50.391Z,10.47
2022-09-18T21:05:17.173Z,10.45
2022-09-18T21:07:45.295Z,10.45
2022-09-18T21:10:13.548Z,10.43
2022-09-18T21:12:40.207Z,10.44
2022-09-18T21:15:12.929Z,10.44
2022-09-18T21:17:39.665Z,10.46
2022-09-18T21:20:06.587Z,10.46
2022-09-18T21:22:33.299Z,10.52
2022-09-18T21:25:00.156Z,10.55
2022-09-18T21:27:26.944Z,10.59
2022-09-18T21:29:55.924Z,10.64
2022-09-18T21:32:23.058Z,10.65
2022-09-18T21:34:52.396Z,10.68
2022-09-18T21:37:19.242Z,10.70
2022-09-18T21:39:45.937Z,10.73
2022-09-18T21:42:13.739Z,10.75
2022-09-18T21:44:40.299Z,10.77
2022-09-18T21:47:10.332Z,10.78
2022-09-18T21:49:36.983Z,10.78
2022-09-18T21:52:06.841Z,10.79
2022-09-18T21:54:33.877Z,10.80
2022-09-18T21:57:01.155Z,10.81
2022-09-18T21:59:30.547Z,10.82
2022-09-18T22:01:58.248Z,10.79
2022-09-18T22:04:27.917Z,10.80
2022-09-18T22:06:56.946Z,10.83
2022-09-18T22:09:29.853Z,10.83
2022-09-18T22:11:57.700Z,10.84
2022-09-18T22:14:29.429Z,10.86
2022-09-18T22:16:58.964Z,10.89
2022-09-18T22:19:25.633Z,10.90
2022-09-18T22:21:52.225Z,10.91
2022-09-18T22:24:24.463Z,10.89
2022-09-18T22:26:57.004Z,10.88
2022-09-18T22:29:25.687Z,10.87
2022-09-18T22:31:53.243Z,10.87
2022-09-18T22:34:23.087Z,10.87
2022-09-18T22:36:52.264Z,10.86
2022-09-18T22:39:20.552Z,10.84
2022-09-18T22:41:48.290Z,10.84
2022-09-18T22:44:15.269Z,10.83
2022-09-18T22:46:44.951Z,10.83
2022-09-18T22:49:14.312Z,10.85
2022-09-18T22:51:43.098Z,10.87
2022-09-18T22:54:11.850Z,10.90
2022-09-18T22:56:51.776Z,10.89
2022-09-18T22:59:22.091Z,10.89
2022-09-18T23:01:55.970Z,10.91
2022-09-18T23:04:24.986Z,10.93
2022-09-18T23:06:51.831Z,10.93
2022-09-18T23:09:19.142Z,10.92
2022-09-18T23:11:48.504Z,10.90
2022-09-18T23:14:18.445Z,10.92
2022-09-18T23:16:46.456Z,10.90
2022-09-18T23:19:16.518Z,10.87
2022-09-18T23:21:43.158Z,10.84
2022-09-18T23:24:11.764Z,10.82
2022-09-18T23:26:42.189Z,10.81
2022-09-18T23:29:12.640Z,10.79
2022-09-18T23:31:42.863Z,10.77
2022-09-18T23:34:30.975Z,10.76
2022-09-18T23:36:58.285Z,10.74
2022-09-18T23:39:32.235Z,10.70
2022-09-18T23:42:18.957Z,10.71
2022-09-18T23:44:46.027Z,10.67
2022-09-18T23:47:12.720Z,10.66
2022-09-18T23:49:39.251Z,10.66
2022-09-18T23:52:06.015Z,10.64
2022-09-18T23:54:32.605Z,10.59
2022-09-18T23:56:59.529Z,10.54
2022-09-18T23:59:27.190Z,10.52
